createdAt,value
2023-04-01T00:00:08.542Z,9.03
2023-04-01T00:02:36.717Z,8.98
2023-04-01T00:05:06.714Z,8.94
2023-04-01T00:07:34.852Z,8.91
2023-04-01T00:10:04.498Z,8.89
2023-04-01T00:12:33.807Z,8.86
2023-04-01T00:15:01.929Z,8.89
2023-04-01T00:17:30.433Z,8.85
2023-04-01T00:19:58.623Z,8.83
2023-04-01T00:22:27.457Z,8.84
2023-04-01T00:24:55.768Z,8.83
2023-04-01T00:27:25.848Z,8.82
2023-04-01T00:29:53.875Z,8.81
2023-04-01T00:32:21.969Z,8.80
2023-04-01T00:34:52.797Z,8.80
2023-04-01T00:37:22.062Z,8.76
2023-04-01T00:39:50.162Z,8.76
2023-04-01T00:42:19.029Z,8.75
2023-04-01T00:44:53.012Z,8.74
2023-04-01T00:47:21.886Z,8.74
2023-04-01T00:49:55.194Z,8.72
2023-04-01T00:52:26.325Z,8.71
2023-04-01T00:54:59.395Z,8.73
2023-04-01T00:57:33.146Z,8.72
2023-04-01T01:00:03.143Z,8.73
2023-04-01T01:02:33.170Z,8.70
2023-04-01T01:05:01.409Z,8.70
2023-04-01T01:07:36.373Z,8.70
2023-04-01T01:10:11.682Z,8.71
2023-04-01T01:12:47.020Z,8.69
2023-04-01T01:15:22.635Z,8.70
2023-04-01T01:17:58.994Z,8.68
2023-04-01T01:20:46.587Z,8.65
2023-04-01T01:23:45.778Z,8.65
2023-04-01T01:26:37.698Z,8.67
2023-04-01T01:29:18.914Z,8.64
2023-04-01T01:31:58.508Z,8.63
2023-04-01T01:34:38.714Z,8.65
2023-04-01T01:37:10.703Z,8.67
2023-04-01T01:39:41.866Z,8.68
2023-04-01T01:42:15.619Z,8.68
2023-04-01T01:44:46.701Z,8.67
2023-04-01T01:47:16.586Z,8.69
2023-04-01T01:49:47.173Z,8.68
2023-04-01T01:52:17.719Z,8.66
2023-04-01T01:54:50.635Z,8.64
2023-04-01T01:57:22.071Z,8.66
2023-04-01T01:59:52.926Z,8.64
2023-04-01T02:02:22.111Z,8.66
2023-04-01T02:04:51.713Z,8.65
2023-04-01T02:07:27.734Z,8.67
2023-04-01T02:09:56.513Z,8.66
2023-04-01T02:12:26.091Z,8.63
2023-04-01T02:14:57.468Z,8.63
2023-04-01T02:17:28.986Z,8.62
2023-04-01T02:20:01.314Z,8.63
2023-04-01T02:22:33.944Z,8.62
2023-04-01T02:25:08.317Z,8.62
2023-04-01T02:27:36.647Z,8.60
2023-04-01T02:30:05.621Z,8.57
2023-04-01T02:32:35.837Z,8.56
2023-04-01T02:35:06.978Z,8.55
2023-04-01T02:37:38.551Z,8.53
2023-04-01T02:40:10.644Z,8.54
2023-04-01T02:42:38.757Z,8.53
2023-04-01T02:45:08.353Z,8.53
2023-04-01T02:47:36.702Z,8.55
2023-04-01T02:50:05.515Z,8.52
2023-04-01T02:52:33.683Z,8.53
2023-04-01T02:55:03.969Z,8.51
2023-04-01T02:57:32.134Z,8.47
2023-04-01T03:00:00.356Z,8.48
2023-04-01T03:02:28.579Z,8.47
2023-04-01T03:04:56.649Z,8.45
2023-04-01T03:07:24.759Z,8.43
2023-04-01T03:09:52.792Z,8.46
2023-04-01T03:12:22.354Z,8.46
2023-04-01T03:14:50.424Z,8.49
2023-04-01T03:17:18.443Z,8.49
2023-04-01T03:19:46.437Z,8.47
2023-04-01T03:22:14.476Z,8.48
2023-04-01T03:24:42.768Z,8.49
2023-04-01T03:27:12.161Z,8.48
2023-04-01T03:29:41.687Z,8.49
2023-04-01T03:32:09.896Z,8.49
2023-04-01T03:34:37.980Z,8.51
2023-04-01T03:37:06.918Z,8.51
2023-04-01T03:39:34.975Z,8.51
2023-04-01T03:42:03.272Z,8.54
2023-04-01T03:44:33.705Z,8.53
2023-04-01T03:47:03.676Z,8.53
2023-04-01T03:49:33.188Z,8.52
2023-04-01T03:52:01.230Z,8.51
2023-04-01T03:54:29.312Z,8.48
2023-04-01T03:56:59.243Z,8.50
2023-04-01T03:59:27.400Z,8.49
2023-04-01T04:01:55.491Z,8.50
2023-04-01T04:04:25.012Z,8.48
2023-04-01T04:06:53.194Z,8.48
2023-04-01T04:09:21.593Z,8.52
2023-04-01T04:11:51.538Z,8.53
2023-04-01T04:14:19.773Z,8.54
2023-04-01T04:16:47.855Z,8.50
2023-04-01T04:19:15.959Z,8.45
2023-04-01T04:21:45.566Z,8.44
2023-04-01T04:24:13.597Z,8.42
2023-04-01T04:26:41.764Z,8.41
2023-04-01T04:29:09.801Z,8.41
2023-04-01T04:31:38.132Z,8.40
2023-04-01T04:34:06.236Z,8.39
2023-04-01T04:36:34.352Z,8.41
2023-04-01T04:39:04.390Z,8.38
2023-04-01T04:41:32.553Z,8.36
2023-04-01T04:44:00.728Z,8.37
2023-04-01T04:46:28.783Z,8.36
2023-04-01T04:48:57.048Z,8.36
2023-04-01T04:51:25.194Z,8.35
2023-04-01T04:53:53.401Z,8.35
2023-04-01T04:56:26.388Z,8.36
2023-04-01T04:58:54.764Z,8.38
2023-04-01T05:01:23.072Z,8.38
2023-04-01T05:03:51.368Z,8.39
2023-04-01T05:06:22.246Z,8.38
2023-04-01T05:08:51.539Z,8.38
2023-04-01T05:11:21.554Z,8.38
2023-04-01T05:13:51.415Z,8.38
2023-04-01T05:16:21.615Z,8.34
2023-04-01T05:18:49.513Z,8.34
2023-04-01T05:21:18.149Z,8.33
2023-04-01T05:23:46.284Z,8.29
2023-04-01T05:26:16.614Z,8.23
2023-04-01T05:28:44.985Z,8.18
2023-04-01T05:31:14.972Z,8.15
2023-04-01T05:33:43.297Z,8.14
2023-04-01T05:36:13.906Z,8.14
2023-04-01T05:38:43.433Z,8.11
2023-04-01T05:41:11.690Z,8.09
2023-04-01T05:43:40.273Z,8.09
2023-04-01T05:46:08.809Z,8.08
2023-04-01T05:48:38.275Z,8.07
2023-04-01T05:51:07.279Z,8.05
2023-04-01T05:53:35.399Z,8.02
2023-04-01T05:56:07.904Z,8.04
2023-04-01T05:58:35.986Z,8.02
2023-04-01T06:01:10.415Z,8.01
2023-04-01T06:03:42.381Z,7.99
2023-04-01T06:06:16.862Z,8.00
2023-04-01T06:08:45.574Z,8.03
2023-04-01T06:11:28.566Z,8.06
2023-04-01T06:14:13.971Z,8.10
2023-04-01T06:16:56.677Z,8.12
2023-04-01T06:19:38.838Z,8.12
2023-04-01T06:22:36.735Z,8.11
2023-04-01T06:25:27.030Z,8.09
2023-04-01T06:28:12.284Z,8.10
2023-04-01T06:30:44.675Z,8.08
2023-04-01T06:33:43.702Z,8.07
2023-04-01T06:36:45.430Z,8.05
2023-04-01T06:39:25.241Z,8.07
2023-04-01T06:42:17.373Z,8.07
2023-04-01T06:44:56.577Z,8.08
2023-04-01T06:47:39.493Z,8.09
2023-04-01T06:50:19.692Z,8.10
2023-04-01T06:52:53.659Z,8.10
2023-04-01T06:55:34.568Z,8.14
2023-04-01T06:58:07.208Z,8.11
2023-04-01T07:00:38.498Z,8.10
2023-04-01T07:03:18.791Z,8.09
2023-04-01T07:05:47.381Z,8.08
2023-04-01T07:08:23.340Z,8.05
2023-04-01T07:10:57.953Z,8.02
2023-04-01T07:13:31.420Z,8.02
2023-04-01T07:16:16.528Z,7.99
2023-04-01T07:18:49.907Z,8.01
2023-04-01T07:21:26.082Z,8.02
2023-04-01T07:23:59.050Z,8.03
2023-04-01T07:26:27.843Z,8.09
2023-04-01T07:28:56.748Z,8.07
2023-04-01T07:31:41.720Z,8.05
2023-04-01T07:34:19.730Z,8.08
2023-04-01T07:36:56.143Z,8.12
2023-04-01T07:39:40.114Z,8.13
2023-04-01T07:42:15.372Z,8.15
2023-04-01T07:44:53.233Z,8.16
2023-04-01T07:47:35.289Z,8.14
2023-04-01T07:50:13.744Z,8.14
2023-04-01T07:52:51.720Z,8.18
2023-04-01T07:55:26.157Z,8.21
2023-04-01T07:58:00.990Z,8.25
2023-04-01T08:00:35.822Z,8.26
2023-04-01T08:03:27.351Z,8.26
2023-04-01T08:05:59.403Z,8.29
2023-04-01T08:08:38.431Z,8.32
2023-04-01T08:11:15.942Z,8.36
2023-04-01T08:13:50.387Z,8.36
2023-04-01T08:16:25.539Z,8.31
2023-04-01T08:19:06.962Z,8.28
2023-04-01T08:21:43.434Z,8.30
2023-04-01T08:24:24.751Z,8.35
2023-04-01T08:26:58.437Z,8.43
2023-04-01T08:29:33.467Z,8.57
2023-04-01T08:32:08.294Z,8.62
2023-04-01T08:34:39.930Z,8.61
2023-04-01T08:37:12.833Z,8.70
2023-04-01T08:39:46.725Z,8.76
2023-04-01T08:42:44.032Z,8.77
2023-04-01T08:45:24.875Z,8.80
2023-04-01T08:48:10.632Z,8.93
2023-04-01T08:50:50.959Z,9.11
2023-04-01T08:53:30.140Z,9.22
2023-04-01T08:56:11.665Z,9.30
2023-04-01T08:59:02.117Z,9.34
2023-04-01T09:01:54.521Z,9.36
2023-04-01T09:04:35.592Z,9.59
2023-04-01T09:07:23.484Z,9.74
2023-04-01T09:10:23.005Z,9.93
2023-04-01T09:13:01.077Z,9.85
2023-04-01T09:15:59.690Z,9.84
2023-04-01T09:18:48.791Z,9.76
2023-04-01T09:21:48.799Z,9.84
2023-04-01T09:24:28.963Z,9.83
2023-04-01T09:27:10.292Z,9.85
2023-04-01T09:30:16.692Z,9.87
2023-04-01T09:33:21.545Z,9.98
2023-04-01T09:35:53.571Z,9.88
2023-04-01T09:38:31.322Z,9.89
2023-04-01T09:41:05.006Z,9.92
2023-04-01T09:43:50.678Z,9.94
2023-04-01T09:46:28.896Z,10.07
2023-04-01T09:49:33.361Z,10.12
2023-04-01T09:52:18.500Z,10.01
2023-04-01T09:55:03.252Z,9.96
2023-04-01T09:57:56.474Z,9.90
2023-04-01T10:00:48.580Z,9.74
2023-04-01T10:03:55.769Z,9.78
2023-04-01T10:07:17.413Z,9.93
2023-04-01T10:10:36.300Z,9.97
2023-04-01T10:13:29.304Z,9.93
2023-04-01T10:16:25.288Z,10.05
2023-04-01T10:19:19.271Z,10.07
2023-04-01T10:22:18.784Z,10.16
2023-04-01T10:25:17.352Z,10.22
2023-04-01T10:28:30.162Z,10.32
2023-04-01T10:31:30.873Z,10.84
2023-04-01T10:34:31.089Z,11.50
2023-04-01T10:36:59.166Z,11.78
2023-04-01T10:40:04.650Z,11.55
2023-04-01T10:43:14.114Z,11.40
2023-04-01T10:46:09.890Z,11.66
2023-04-01T10:49:27.389Z,11.78
2023-04-01T10:52:36.183Z,11.86
2023-04-01T10:55:32.732Z,11.59
2023-04-01T10:58:34.436Z,11.47
2023-04-01T11:01:36.769Z,11.57
2023-04-01T11:04:42.367Z,11.58
2023-04-01T11:08:06.021Z,11.48
2023-04-01T11:11:10.480Z,11.39
2023-04-01T11:14:27.793Z,11.35
2023-04-01T11:17:29.580Z,11.64
2023-04-01T11:20:57.447Z,12.00
2023-04-01T11:24:01.800Z,12.41
2023-04-01T11:26:58.369Z,12.52
2023-04-01T11:29:59.682Z,12.61
2023-04-01T11:33:02.905Z,12.77
2023-04-01T11:36:17.531Z,12.82
2023-04-01T11:38:59.001Z,12.97
2023-04-01T11:41:37.197Z,12.92
2023-04-01T11:44:20.516Z,13.07
2023-04-01T11:47:14.518Z,13.08
2023-04-01T11:49:57.231Z,13.04
2023-04-01T11:52:43.015Z,13.07
2023-04-01T11:55:47.018Z,13.17
2023-04-01T11:58:34.119Z,13.24
2023-04-01T12:01:26.764Z,13.40
2023-04-01T12:04:29.697Z,13.33
2023-04-01T12:07:15.476Z,13.35
2023-04-01T12:09:51.875Z,13.34
2023-04-01T12:12:31.969Z,13.34
2023-04-01T12:15:15.106Z,13.31
2023-04-01T12:17:53.081Z,13.39
